Weather at Gaziantep International Airport

Public forecast

Using degrees Celsius for public forecast. Weather courtesy of forecast.io.

Current aviation weather report (METAR) for Gaziantep International Airport

2024/07/22 23:20 (retrieved 35 minutes ago)

LTAJ 222320Z 35003KT CAVOK 29/17 Q1006 NOSIG RMK RWY10 31014KT SKC

Aviation forecast (TAF) for Gaziantep International Airport

2024/07/22 18:00 (retrieved 6 hours ago)

TAF LTAJ 221640Z 2218/2318 32009KT CAVOK TEMPO 2218/2221 32015G25KT PROB40 TEMPO 2314/2318 30015G25KT